Siempre Kalima — EA3951 — position and weather

sailwx.info

Track history (hours):
 
Tides and Currents Weather Stations Pressure Air Temp Water Temp Dewpoint Dewpoint Depression Visibility Wind Speed Wind Dir Waves Ship Positions

Siempre Kalima

Last reported at 2018-Jul-23 01:52 UTC. Time now 2018-Jul-23 02:11 UTC.
Position N 37°34' W 000°59'.

Length 25 m; draft 3.2 m.

Type: Fishing. MMSI: 224082260.

Date/timePositionNaut miles runAvg speedWind from/ knotsBaromVisibWave heightAir tempDewpointWater temp
2018-Jul-23 01:52N 37°34' W 000°59'3 7.0
2018-Jul-23 01:23N 37°31' W 000°56'3 7.6
2018-Jul-23 01:00N 37°30' W 000°53'4 7.7
2018-Jul-23 00:30N 37°28' W 000°49'4 7.6
2018-Jul-23 00:00N 37°25' W 000°45'19 0.8
2018-Jul-22 01:27N 37°20' W 000°21'1 1.6
2018-Jul-22 00:42N 37°21' W 000°23'1 1.8
2018-Jul-22 00:24N 37°22' W 000°23'14 0.6
2018-Jul-21 01:47N 37°09' W 000°29'0 1.5
2018-Jul-21 01:29N 37°09' W 000°30'1 1.2
2018-Jul-21 01:00N 37°09' W 000°30'13 0.6
2018-Jul-20 04:39N 37°21' W 000°22'0 1.8
2018-Jul-20 04:30N 37°21' W 000°22'1 1.8
2018-Jul-20 04:00N 37°21' W 000°23'2 1.6
2018-Jul-20 03:04N 37°22' W 000°25'0 1.6
2018-Jul-20 02:49N 37°22' W 000°25'1 1.6
2018-Jul-20 02:29N 37°23' W 000°26'3 1.6
2018-Jul-20 00:30N 37°24' W 000°30'6 0.5
2018-Jul-19 11:47N 37°17' W 000°27'10 0.2
2018-Jul-17 18:30N 37°17' W 000°15'1 1.3
2018-Jul-17 17:58N 37°16' W 000°15'1 1.3
2018-Jul-17 17:30N 37°16' W 000°15'1 1.3
2018-Jul-17 17:00N 37°15' W 000°16'1 1.3
2018-Jul-17 16:30N 37°15' W 000°16'1 1.3
2018-Jul-17 16:00N 37°14' W 000°17'1 1.5
2018-Jul-17 15:28N 37°14' W 000°17'1 1.6
2018-Jul-17 14:59N 37°13' W 000°18'1 1.4
2018-Jul-17 14:22N 37°12' W 000°19'0 1.3
2018-Jul-17 13:59N 37°12' W 000°19'1 1.4
2018-Jul-17 13:27N 37°11' W 000°20'1 1.0
2018-Jul-17 12:57N 37°11' W 000°20'0 0.5
2018-Jul-17 12:30N 37°11' W 000°20'5 8.3
2018-Jul-17 11:57N 37°15' W 000°22'2 4.5
2018-Jul-17 11:30N 37°13' W 000°22'6 7.1
2018-Jul-17 10:42N 37°08' W 000°19'1 6.6
2018-Jul-17 10:30N 37°07' W 000°20'3 5.7
2018-Jul-17 10:00N 37°08' W 000°24'4 7.0
2018-Jul-17 09:30N 37°11' W 000°26'5 6.7
2018-Jul-17 08:48N 37°15' W 000°29'15 7.9
2018-Jul-17 06:54N 37°26' W 000°42'3 8.2
2018-Jul-17 06:29N 37°28' W 000°45'5 8.4
2018-Jul-17 05:57N 37°31' W 000°50'  
Track history (hours):
 
Tides and Currents Weather Stations Pressure Air Temp Water Temp Dewpoint Dewpoint Depression Visibility Wind Speed Wind Dir Waves Ship Positions

Siempre Kalima

Last reported at 2018-Jul-23 01:52 UTC. Time now 2018-Jul-23 02:11 UTC.
Position N 37°34' W 000°59'.

Length 25 m; draft 3.2 m.

Type: Fishing. MMSI: 224082260.

Date/timePositionNaut miles runAvg speedWind from/ knotsBaromVisibWave heightAir tempDewpointWater temp
2018-Jul-23 01:52N 37°34' W 000°59'3 7.0
2018-Jul-23 01:23N 37°31' W 000°56'3 7.6
2018-Jul-23 01:00N 37°30' W 000°53'4 7.7
2018-Jul-23 00:30N 37°28' W 000°49'4 7.6
2018-Jul-23 00:00N 37°25' W 000°45'19 0.8
2018-Jul-22 01:27N 37°20' W 000°21'1 1.6
2018-Jul-22 00:42N 37°21' W 000°23'1 1.8
2018-Jul-22 00:24N 37°22' W 000°23'14 0.6
2018-Jul-21 01:47N 37°09' W 000°29'0 1.5
2018-Jul-21 01:29N 37°09' W 000°30'1 1.2
2018-Jul-21 01:00N 37°09' W 000°30'13 0.6
2018-Jul-20 04:39N 37°21' W 000°22'0 1.8
2018-Jul-20 04:30N 37°21' W 000°22'1 1.8
2018-Jul-20 04:00N 37°21' W 000°23'2 1.6
2018-Jul-20 03:04N 37°22' W 000°25'0 1.6
2018-Jul-20 02:49N 37°22' W 000°25'1 1.6
2018-Jul-20 02:29N 37°23' W 000°26'3 1.6
2018-Jul-20 00:30N 37°24' W 000°30'6 0.5
2018-Jul-19 11:47N 37°17' W 000°27'10 0.2
2018-Jul-17 18:30N 37°17' W 000°15'1 1.3
2018-Jul-17 17:58N 37°16' W 000°15'1 1.3
2018-Jul-17 17:30N 37°16' W 000°15'1 1.3
2018-Jul-17 17:00N 37°15' W 000°16'1 1.3
2018-Jul-17 16:30N 37°15' W 000°16'1 1.3
2018-Jul-17 16:00N 37°14' W 000°17'1 1.5
2018-Jul-17 15:28N 37°14' W 000°17'1 1.6
2018-Jul-17 14:59N 37°13' W 000°18'1 1.4
2018-Jul-17 14:22N 37°12' W 000°19'0 1.3
2018-Jul-17 13:59N 37°12' W 000°19'1 1.4
2018-Jul-17 13:27N 37°11' W 000°20'1 1.0
2018-Jul-17 12:57N 37°11' W 000°20'0 0.5
2018-Jul-17 12:30N 37°11' W 000°20'5 8.3
2018-Jul-17 11:57N 37°15' W 000°22'2 4.5
2018-Jul-17 11:30N 37°13' W 000°22'6 7.1
2018-Jul-17 10:42N 37°08' W 000°19'1 6.6
2018-Jul-17 10:30N 37°07' W 000°20'3 5.7
2018-Jul-17 10:00N 37°08' W 000°24'4 7.0
2018-Jul-17 09:30N 37°11' W 000°26'5 6.7
2018-Jul-17 08:48N 37°15' W 000°29'15 7.9
2018-Jul-17 06:54N 37°26' W 000°42'3 8.2
2018-Jul-17 06:29N 37°28' W 000°45'5 8.4
2018-Jul-17 05:57N 37°31' W 000°50'  

Dump ship's entire track history